New Orleans, LA (70112)

2:31 PM CST on December 04, 2016 (GMT -0600)
APRSWXNET | | Change Station

Elev 3 ft 29.97 °N, 90.09 °W | Updated 24 minutes ago

Mist
Mist
65 °F
Feels Like 65 °F
N
8
Wind Variable Wind from NNW
Gusts 16.0 mph

Today
High -- | Low -- °F
--% Chance of Precip.
Yesterday
High -- | Low -- °F
Precip. -- in
Pressure 29.89 in
Visibility 1.0 miles
Clouds
Dew Point 63 °F
Humidity 93%
Rainfall in
Snow Depth Not available.
6:41 AM 5:00 PM
Waxing Crescent, 25% visible
SPECI KNEW 042025Z 33015KT 1SM BR VV003 18/17 A2989 RMK AO2 T01780172
Pressure 29.89 in
Visibility 1.0 miles
Clouds
Dew Point 63 °F
Humidity 93%
Rainfall in
Snow Depth Not available.
6:41 AM 5:00 PM
Waxing Crescent, 25% visible
SPECI KNEW 042025Z 33015KT 1SM BR VV003 18/17 A2989 RMK AO2 T01780172

10-Day Weather Forecast

Almanac

Astronomy

Dec. 04, 2016 Rise Set
Actual Time
Civil Twilight
Nautical Twilight
Astronomical Twilight
Moon
Length of Visible Light
Length of Day
Tomorrow will be .
, % of the Moon is Illuminated

Today's Extremes

State Highs State Lows

Community

WunderPhotos

Upload Photos

1,955,667 photos uploaded!

WunderBlog® & News

Nearby

Air Quality

  Air Quality AQ Index Pollutant
Not available.

Snow Depth

Station Depth Elevation

Earthquake Activity

City Distance Mag. Time & Date
Minimum magnitude displayed is 2.5.

Coastal Water Temperatures

Place Temperature

Stations

Nearby Weather Stations

Station Location Temp. Windchill Dew Point Humidity Wind Precip. Elev Updated Type
                   

Watches & Warnings

There are currently no watches in effect.